Time;durP1;ratioP1;P1;durP2;ratioP2;P2;SDS_P1;SDS_P2;PMS_P1;PMS_P2;Temp;Humidity;BMP_temperature;BMP_pressure;BME280_temperature;BME280_humidity;BME280_pressure;Samples;Min_cycle;Max_cycle;Signal;HPM_P1;HPM_P2
2022/03/23 00:01:22;;;;;;;0.33;0.33;;;7.10;99.90;;;;;;5004034;28;20485;-90
2022/03/23 00:03:48;;;;;;;0.33;0.33;;;7.10;99.90;;;;;;4999692;28;20443;-90
2022/03/23 00:06:14;;;;;;;0.30;0.30;;;6.80;99.90;;;;;;5019672;28;20216;-91
2022/03/23 00:08:40;;;;;;;0.27;0.27;;;6.70;99.90;;;;;;5002707;28;20447;-90
2022/03/23 00:11:06;;;;;;;0.30;0.30;;;6.40;99.90;;;;;;5027664;28;20533;-90
2022/03/23 00:13:32;;;;;;;0.40;0.40;;;6.50;99.90;;;;;;5000114;28;20498;-90
2022/03/23 00:15:58;;;;;;;0.30;0.30;;;6.50;99.90;;;;;;5015360;28;20656;-90
2022/03/23 00:18:24;;;;;;;0.33;0.33;;;6.30;99.90;;;;;;5015339;28;20462;-89
2022/03/23 00:20:50;;;;;;;0.40;0.40;;;6.40;99.90;;;;;;5002926;28;20474;-90
2022/03/23 00:23:15;;;;;;;0.73;0.73;;;6.30;99.90;;;;;;5016637;28;20222;-89
2022/03/23 00:25:41;;;;;;;0.60;0.60;;;6.30;99.90;;;;;;5013917;28;20192;-91
2022/03/23 00:28:07;;;;;;;0.40;0.40;;;6.30;99.90;;;;;;4998177;28;20636;-91
2022/03/23 00:30:33;;;;;;;1.13;1.13;;;6.30;99.90;;;;;;5010084;28;20220;-90
2022/03/23 00:33:00;;;;;;;0.20;0.20;;;6.10;99.90;;;;;;5014540;28;20926;-90
2022/03/23 00:35:25;;;;;;;0.40;0.40;;;5.90;99.90;;;;;;5010486;28;20939;-89
2022/03/23 00:37:51;;;;;;;0.70;0.70;;;5.70;99.90;;;;;;5015921;28;20450;-90
2022/03/23 00:40:16;;;;;;;0.60;0.60;;;5.70;99.90;;;;;;5003622;28;20200;-90
2022/03/23 00:42:42;;;;;;;0.40;0.40;;;5.70;99.90;;;;;;4995019;28;20195;-90
2022/03/23 00:45:11;;;;;;;0.30;0.30;;;5.70;99.90;;;;;;5025464;28;20322;-90
2022/03/23 00:47:37;;;;;;;0.30;0.30;;;5.80;99.90;;;;;;5039080;28;20186;-91
2022/03/23 00:50:03;;;;;;;0.30;0.30;;;5.50;99.90;;;;;;5031344;28;20551;-89
2022/03/23 00:52:28;;;;;;;0.30;0.30;;;5.40;99.90;;;;;;5029616;28;20190;-90
2022/03/23 00:54:54;;;;;;;0.30;0.30;;;5.30;99.90;;;;;;5037369;28;20187;-90
2022/03/23 00:57:19;;;;;;;0.33;0.33;;;5.20;99.90;;;;;;5024017;28;20188;-91
2022/03/23 00:59:45;;;;;;;1.20;1.20;;;5.30;99.90;;;;;;5033271;28;20226;-90
2022/03/23 01:02:10;;;;;;;1.60;1.60;;;5.40;99.90;;;;;;5028237;28;20195;-90
2022/03/23 01:04:36;;;;;;;1.10;1.10;;;5.30;99.90;;;;;;5013394;28;20544;-89
2022/03/23 01:07:03;;;;;;;0.70;0.70;;;5.30;99.90;;;;;;5032813;28;22449;-90
2022/03/23 01:09:28;;;;;;;0.60;0.60;;;5.30;99.90;;;;;;5037371;28;20488;-90
2022/03/23 01:11:55;;;;;;;0.53;0.53;;;5.10;99.90;;;;;;5036002;28;21037;-90
2022/03/23 01:14:24;;;;;;;2.67;2.67;;;5.00;99.90;;;;;;5037779;28;20274;-90
2022/03/23 01:16:51;;;;;;;1.70;1.70;;;4.90;99.90;;;;;;5030276;28;20449;-88
2022/03/23 01:19:17;;;;;;;2.17;2.17;;;4.80;99.90;;;;;;5042206;28;20989;-89
2022/03/23 01:21:44;;;;;;;2.20;2.20;;;4.80;99.90;;;;;;5034042;28;20456;-90
2022/03/23 01:24:10;;;;;;;1.40;1.40;;;4.70;99.90;;;;;;5040587;28;20442;-89
2022/03/23 01:26:36;;;;;;;1.50;1.50;;;4.80;99.90;;;;;;5031808;28;20520;-90
2022/03/23 01:29:02;;;;;;;1.60;1.60;;;4.90;99.90;;;;;;5013637;28;20486;-89
2022/03/23 01:31:27;;;;;;;1.40;1.40;;;4.70;99.90;;;;;;5000329;28;20997;-89
2022/03/23 01:33:59;;;;;;;0.80;0.80;;;4.50;99.90;;;;;;5023568;28;20222;-90
2022/03/23 01:36:27;;;;;;;0.70;0.70;;;4.50;99.90;;;;;;5027825;28;20183;-90
2022/03/23 01:38:53;;;;;;;1.00;1.00;;;4.40;99.90;;;;;;5034440;28;20553;-90
2022/03/23 01:41:19;;;;;;;0.33;0.33;;;4.50;99.90;;;;;;5046465;28;20524;-90
2022/03/23 01:43:45;;;;;;;0.30;0.30;;;4.50;99.90;;;;;;5042802;28;20207;-89
2022/03/23 01:46:12;;;;;;;0.40;0.40;;;4.40;99.90;;;;;;5029525;28;20512;-91
2022/03/23 01:48:37;;;;;;;1.13;1.13;;;4.40;99.90;;;;;;5010085;28;20437;-89
2022/03/23 01:51:03;;;;;;;0.97;0.97;;;4.30;99.90;;;;;;5031803;28;20563;-89
2022/03/23 01:53:29;;;;;;;0.47;0.47;;;4.30;99.90;;;;;;5031141;28;20215;-90
2022/03/23 01:55:54;;;;;;;0.40;0.40;;;4.40;99.90;;;;;;5038146;28;20893;-90
2022/03/23 01:58:21;;;;;;;0.30;0.30;;;4.40;99.90;;;;;;5032845;28;20183;-90
2022/03/23 02:00:46;;;;;;;0.70;0.70;;;4.30;99.90;;;;;;5029206;28;20218;-90
2022/03/23 02:03:12;;;;;;;0.70;0.70;;;4.40;99.90;;;;;;5025951;28;20446;-90
2022/03/23 02:05:38;;;;;;;0.50;0.50;;;4.40;99.90;;;;;;5029101;28;20254;-91
2022/03/23 02:08:03;;;;;;;0.40;0.40;;;4.50;99.90;;;;;;5031707;28;20334;-90
2022/03/23 02:10:29;;;;;;;0.90;0.90;;;4.50;99.90;;;;;;5042087;28;20213;-90
2022/03/23 02:12:55;;;;;;;0.40;0.40;;;4.30;99.90;;;;;;5019696;28;20225;-90
2022/03/23 02:15:22;;;;;;;0.40;0.40;;;4.10;99.90;;;;;;5037716;28;20749;-90
2022/03/23 02:17:53;;;;;;;0.83;0.83;;;4.30;99.90;;;;;;5032427;28;20164;-91
2022/03/23 02:20:19;;;;;;;0.50;0.50;;;4.40;99.90;;;;;;5014835;28;20453;-91
2022/03/23 02:22:44;;;;;;;0.40;0.40;;;4.30;99.90;;;;;;5029827;28;20442;-90
2022/03/23 02:25:10;;;;;;;0.40;0.40;;;4.30;99.90;;;;;;5039598;28;20490;-90
2022/03/23 02:27:40;;;;;;;0.40;0.40;;;4.30;99.90;;;;;;5033435;28;20193;-90
2022/03/23 02:30:09;;;;;;;0.40;0.40;;;4.30;99.90;;;;;;5035129;28;20563;-89
2022/03/23 02:32:35;;;;;;;0.40;0.40;;;4.20;99.90;;;;;;5025812;28;20438;-90
2022/03/23 02:35:01;;;;;;;0.40;0.40;;;4.10;99.90;;;;;;5025801;28;20470;-90
2022/03/23 02:37:27;;;;;;;0.50;0.50;;;3.90;99.90;;;;;;5026547;28;20435;-89
2022/03/23 02:39:53;;;;;;;0.50;0.50;;;3.90;99.90;;;;;;5030905;28;20453;-90
2022/03/23 02:42:19;;;;;;;0.40;0.40;;;3.90;99.90;;;;;;5003520;28;20230;-89
2022/03/23 02:44:44;;;;;;;0.33;0.33;;;3.80;99.90;;;;;;5030651;28;20502;-90
2022/03/23 02:47:10;;;;;;;0.37;0.37;;;3.80;99.90;;;;;;5027569;28;20191;-91
2022/03/23 02:49:36;;;;;;;0.40;0.40;;;3.70;99.90;;;;;;5031032;28;20203;-90
2022/03/23 02:52:02;;;;;;;0.47;0.47;;;3.80;99.90;;;;;;5046807;28;20551;-93
2022/03/23 03:01:52;;;;;;;0.33;0.33;;;3.60;99.90;;;;;;5036078;28;20179;-90
2022/03/23 03:03:33;;;;;;;0.30;0.30;;;3.70;99.90;;;;;;5020686;28;20562;-91
2022/03/23 03:06:03;;;;;;;0.50;0.50;;;3.70;99.90;;;;;;5020076;28;20453;-90
2022/03/23 03:11:14;;;;;;;0.40;0.40;;;3.70;99.90;;;;;;5033642;28;20453;-90
2022/03/23 03:13:41;;;;;;;0.40;0.40;;;3.70;99.90;;;;;;5012509;28;20474;-90
2022/03/23 03:16:06;;;;;;;0.43;0.43;;;3.70;99.90;;;;;;5028878;28;20457;-90
2022/03/23 03:18:33;;;;;;;0.40;0.40;;;3.80;99.90;;;;;;5036784;28;20434;-90
2022/03/23 03:21:02;;;;;;;0.37;0.37;;;3.60;99.90;;;;;;5034024;28;20195;-90
2022/03/23 03:23:30;;;;;;;0.40;0.40;;;3.80;99.90;;;;;;5029171;28;20449;-90
2022/03/23 03:25:55;;;;;;;0.50;0.50;;;3.70;99.90;;;;;;5030946;28;20491;-89
2022/03/23 03:28:21;;;;;;;0.40;0.40;;;3.50;99.90;;;;;;5012373;28;20946;-89
2022/03/23 03:30:46;;;;;;;0.30;0.30;;;3.50;99.90;;;;;;5027140;28;20231;-89
2022/03/23 03:33:11;;;;;;;0.40;0.40;;;3.50;99.90;;;;;;5027111;28;20187;-90
2022/03/23 03:35:37;;;;;;;0.40;0.40;;;3.40;99.90;;;;;;5029319;28;20205;-92
2022/03/23 03:38:03;;;;;;;0.50;0.50;;;3.30;99.90;;;;;;5018982;28;20194;-92
2022/03/23 03:40:28;;;;;;;0.40;0.40;;;3.40;99.90;;;;;;5035000;28;20195;-93
2022/03/23 03:42:54;;;;;;;0.40;0.40;;;3.40;99.90;;;;;;5029575;28;20233;-90
2022/03/23 03:45:19;;;;;;;3.23;3.17;;;3.40;99.90;;;;;;5024929;28;20713;-92
2022/03/23 03:47:45;;;;;;;1.93;1.83;;;3.20;99.90;;;;;;5032624;28;20199;-92
2022/03/23 03:50:11;;;;;;;1.60;1.50;;;3.40;99.90;;;;;;5008759;28;20239;-92
2022/03/23 03:52:36;;;;;;;3.17;1.70;;;3.40;99.90;;;;;;5027446;28;20329;-91
2022/03/23 03:55:03;;;;;;;1.77;1.43;;;3.50;99.90;;;;;;5026872;28;20533;-92
2022/03/23 03:57:28;;;;;;;2.97;2.77;;;3.20;99.90;;;;;;5033909;28;20187;-90
2022/03/23 03:59:54;;;;;;;3.27;3.03;;;3.40;99.90;;;;;;5014609;28;20464;-90
2022/03/23 04:02:20;;;;;;;3.87;2.87;;;3.20;99.90;;;;;;5025641;28;20243;-92
2022/03/23 04:04:45;;;;;;;1.77;1.67;;;3.30;99.90;;;;;;5030026;28;20191;-92
2022/03/23 04:07:11;;;;;;;1.47;1.37;;;3.30;99.90;;;;;;5016246;28;20561;-93
2022/03/23 04:09:36;;;;;;;1.83;1.67;;;3.30;99.90;;;;;;5032041;28;20250;-89
2022/03/23 04:12:02;;;;;;;2.13;1.33;;;3.40;99.90;;;;;;5037991;28;20187;-90
2022/03/23 04:14:28;;;;;;;2.13;2.03;;;3.40;99.90;;;;;;5033983;28;20546;-89
2022/03/23 04:16:53;;;;;;;2.70;2.50;;;3.30;99.90;;;;;;5032249;28;20195;-90
2022/03/23 04:19:19;;;;;;;1.60;1.50;;;3.30;99.90;;;;;;5035089;28;20186;-93
2022/03/23 04:21:45;;;;;;;3.60;3.30;;;3.30;99.90;;;;;;5036905;28;20191;-93
2022/03/23 04:24:11;;;;;;;4.27;3.07;;;3.30;99.90;;;;;;5025900;28;20198;-91
2022/03/23 04:26:36;;;;;;;1.20;1.10;;;3.30;99.90;;;;;;5014488;28;20442;-92
2022/03/23 04:29:02;;;;;;;2.50;2.30;;;3.10;99.90;;;;;;5033056;28;20229;-92
2022/03/23 04:31:28;;;;;;;1.17;1.07;;;3.20;99.90;;;;;;5032783;28;20219;-92
2022/03/23 04:33:54;;;;;;;1.93;1.80;;;3.10;99.90;;;;;;5032994;28;20198;-92
2022/03/23 04:36:20;;;;;;;1.43;1.27;;;3.30;99.90;;;;;;5009343;28;20205;-92
2022/03/23 04:38:45;;;;;;;1.30;1.20;;;3.20;99.90;;;;;;5033200;28;20446;-91
2022/03/23 04:41:11;;;;;;;1.20;1.10;;;3.30;99.90;;;;;;5035693;28;20187;-92
2022/03/23 04:43:38;;;;;;;3.17;2.97;;;3.10;99.90;;;;;;5040198;28;20189;-93
2022/03/23 04:46:05;;;;;;;2.10;1.97;;;3.10;99.90;;;;;;5035135;28;20234;-93
2022/03/23 04:48:31;;;;;;;1.33;1.23;;;3.20;99.90;;;;;;5048606;28;20447;-92
2022/03/23 04:50:56;;;;;;;4.80;2.70;;;3.00;99.90;;;;;;5014211;28;20508;-91
2022/03/23 04:53:22;;;;;;;3.60;3.30;;;3.10;99.90;;;;;;5027570;28;20585;-90
2022/03/23 04:55:47;;;;;;;1.43;1.33;;;3.00;99.90;;;;;;5030216;28;20210;-92
2022/03/23 04:58:13;;;;;;;1.20;1.10;;;3.00;99.90;;;;;;5014413;28;20194;-92
2022/03/23 05:00:38;;;;;;;4.97;4.80;;;3.00;99.90;;;;;;5011772;28;20187;-92
2022/03/23 05:03:04;;;;;;;1.13;1.03;;;2.90;99.90;;;;;;5032269;28;20200;-92
2022/03/23 05:05:30;;;;;;;1.50;1.40;;;2.90;99.90;;;;;;5033553;28;20187;-92
2022/03/23 05:07:56;;;;;;;1.80;1.70;;;3.00;99.90;;;;;;5032244;28;20221;-91
2022/03/23 05:10:21;;;;;;;1.50;1.40;;;2.90;99.90;;;;;;5030119;28;20479;-92
2022/03/23 05:12:47;;;;;;;1.40;1.30;;;2.80;99.90;;;;;;5032361;28;20557;-91
2022/03/23 05:15:14;;;;;;;1.10;1.00;;;2.80;99.90;;;;;;5031804;28;20201;-92
2022/03/23 05:17:41;;;;;;;2.10;1.57;;;2.70;99.90;;;;;;5032461;28;20219;-92
2022/03/23 05:20:08;;;;;;;1.23;1.13;;;2.80;99.90;;;;;;5002612;28;20690;-92
2022/03/23 05:22:35;;;;;;;1.37;1.27;;;2.70;99.90;;;;;;5033557;28;20456;-92
2022/03/23 05:25:01;;;;;;;1.73;1.63;;;2.70;99.90;;;;;;5032092;28;20536;-92
2022/03/23 05:27:26;;;;;;;2.13;1.87;;;2.80;99.90;;;;;;5030307;28;20442;-91
2022/03/23 05:29:52;;;;;;;2.97;2.57;;;3.00;99.90;;;;;;5031332;28;20489;-92
2022/03/23 05:32:18;;;;;;;3.57;3.27;;;3.00;99.90;;;;;;5031279;28;20262;-92
2022/03/23 05:34:48;;;;;;;3.57;3.27;;;2.90;99.90;;;;;;5033030;28;21267;-93
2022/03/23 05:37:16;;;;;;;5.77;5.40;;;2.90;99.90;;;;;;5033853;28;20176;-92
2022/03/23 05:39:42;;;;;;;6.10;5.53;;;2.90;99.90;;;;;;5022982;28;20546;-92
2022/03/23 05:42:08;;;;;;;8.47;7.93;;;3.00;99.90;;;;;;5025520;28;20442;-93
2022/03/23 05:44:34;;;;;;;3.00;2.90;;;2.90;99.90;;;;;;5030014;28;21128;-92
2022/03/23 05:47:00;;;;;;;12.33;3.20;;;3.00;99.90;;;;;;5025588;28;20199;-91
2022/03/23 05:49:27;;;;;;;3.03;2.83;;;2.90;99.90;;;;;;5013604;28;20483;-92
2022/03/23 05:51:52;;;;;;;2.03;1.93;;;2.90;99.90;;;;;;5032285;28;20191;-92
2022/03/23 05:54:20;;;;;;;2.10;2.00;;;3.00;99.90;;;;;;5031776;28;20806;-93
2022/03/23 05:56:45;;;;;;;4.10;2.53;;;3.10;99.90;;;;;;5031694;28;20703;-92
2022/03/23 05:59:11;;;;;;;2.40;2.30;;;3.00;99.90;;;;;;5032545;28;20453;-92
2022/03/23 06:01:37;;;;;;;2.83;2.60;;;3.10;99.90;;;;;;5030015;28;20245;-92
2022/03/23 06:04:03;;;;;;;4.20;2.93;;;3.10;99.90;;;;;;5031045;28;20655;-93
2022/03/23 06:06:29;;;;;;;2.80;2.70;;;3.20;99.90;;;;;;5028794;28;20189;-90
2022/03/23 06:08:54;;;;;;;1.33;1.23;;;3.30;99.90;;;;;;5037595;28;20557;-90
2022/03/23 06:11:20;;;;;;;1.63;1.53;;;3.30;99.90;;;;;;5037582;28;20222;-92
2022/03/23 06:13:46;;;;;;;1.27;1.17;;;3.30;99.90;;;;;;5031921;28;20222;-92
2022/03/23 06:16:11;;;;;;;2.90;2.33;;;3.40;99.90;;;;;;5030092;28;20191;-92
2022/03/23 06:18:38;;;;;;;4.60;4.20;;;3.40;99.90;;;;;;5028211;28;20242;-89
2022/03/23 06:21:04;;;;;;;3.20;3.00;;;3.50;99.90;;;;;;5028140;28;20632;-91
2022/03/23 06:23:30;;;;;;;2.60;2.03;;;3.80;99.90;;;;;;5022235;28;20926;-90
2022/03/23 06:25:56;;;;;;;7.03;3.60;;;3.90;99.90;;;;;;5029077;28;20446;-88
2022/03/23 06:28:23;;;;;;;2.03;1.93;;;4.00;99.90;;;;;;5025660;28;20820;-89
2022/03/23 06:30:52;;;;;;;3.83;1.77;;;4.20;99.90;;;;;;5030399;28;20246;-90
2022/03/23 06:33:19;;;;;;;2.40;2.30;;;4.30;99.90;;;;;;5031567;28;20495;-91
2022/03/23 06:35:45;;;;;;;2.03;1.93;;;4.50;99.90;;;;;;5022749;28;20449;-92
2022/03/23 06:38:11;;;;;;;5.37;4.80;;;4.60;99.90;;;;;;5031283;28;20439;-89
2022/03/23 06:40:37;;;;;;;2.67;2.50;;;4.80;99.90;;;;;;5031984;28;20422;-92
2022/03/23 06:43:03;;;;;;;3.10;2.33;;;4.90;99.90;;;;;;5031754;28;20492;-91
2022/03/23 06:45:29;;;;;;;8.97;1.87;;;5.10;99.90;;;;;;5029486;28;20227;-92
2022/03/23 06:47:55;;;;;;;1.23;1.13;;;5.20;99.90;;;;;;5032439;28;20247;-91
2022/03/23 06:50:20;;;;;;;3.23;3.03;;;5.40;99.90;;;;;;5027135;28;20481;-91
2022/03/23 06:52:46;;;;;;;5.30;3.37;;;5.60;99.90;;;;;;5029909;28;20195;-91
2022/03/23 06:55:11;;;;;;;2.20;2.10;;;5.70;99.90;;;;;;5031568;28;20187;-91
2022/03/23 06:57:37;;;;;;;21.27;20.20;;;5.80;99.90;;;;;;5032433;28;20266;-91
2022/03/23 07:00:12;;;;;;;8.70;8.13;;;6.00;99.90;;;;;;5031570;28;20179;-90
2022/03/23 07:02:43;;;;;;;4.30;1.97;;;6.20;99.90;;;;;;5024976;28;20267;-92
2022/03/23 07:05:10;;;;;;;1.77;1.60;;;6.30;99.90;;;;;;5027620;28;20438;-90
2022/03/23 07:07:36;;;;;;;1.57;1.47;;;6.40;99.90;;;;;;5030070;28;20442;-92
2022/03/23 07:10:06;;;;;;;2.70;1.70;;;6.30;99.90;;;;;;5031422;28;20521;-90
2022/03/23 07:12:31;;;;;;;3.90;2.57;;;6.40;99.90;;;;;;5029073;28;20527;-90
2022/03/23 07:14:57;;;;;;;5.13;2.73;;;6.40;99.90;;;;;;5023975;28;20454;-91
2022/03/23 07:17:23;;;;;;;1.63;1.53;;;6.60;99.90;;;;;;5030561;28;20210;-88
2022/03/23 07:19:49;;;;;;;4.43;3.67;;;6.70;99.90;;;;;;5019651;28;20431;-91
2022/03/23 07:22:15;;;;;;;5.00;3.50;;;7.00;99.90;;;;;;5027984;28;20194;-90
2022/03/23 07:24:42;;;;;;;2.67;2.50;;;7.20;99.90;;;;;;5014163;28;20187;-91
2022/03/23 07:27:08;;;;;;;8.13;3.60;;;7.30;99.90;;;;;;5031448;28;20430;-90
2022/03/23 07:29:35;;;;;;;6.73;5.30;;;7.40;99.90;;;;;;5031138;28;20876;-91
2022/03/23 07:32:00;;;;;;;2.63;2.53;;;7.60;99.90;;;;;;5035203;28;20445;-91
2022/03/23 07:34:26;;;;;;;3.53;2.50;;;7.70;99.90;;;;;;5036003;28;20911;-90
2022/03/23 07:36:51;;;;;;;6.07;3.30;;;7.90;99.90;;;;;;5031163;28;20257;-87
2022/03/23 07:39:20;;;;;;;3.30;2.63;;;8.10;99.90;;;;;;5033300;28;20191;-89
2022/03/23 07:41:50;;;;;;;4.10;3.20;;;8.20;99.90;;;;;;5026821;28;20523;-89
2022/03/23 07:44:18;;;;;;;3.70;2.57;;;8.40;99.90;;;;;;5024661;28;20437;-89
2022/03/23 07:46:46;;;;;;;1.17;1.07;;;8.70;99.90;;;;;;5026434;28;20543;-88
2022/03/23 07:49:13;;;;;;;4.03;3.80;;;8.90;99.90;;;;;;5032826;28;20478;-90
2022/03/23 07:51:39;;;;;;;2.43;2.23;;;9.20;99.90;;;;;;5014999;28;20528;-90
2022/03/23 07:54:05;;;;;;;2.50;1.70;;;9.40;99.90;;;;;;5025826;28;20565;-88
2022/03/23 07:56:31;;;;;;;3.57;2.13;;;9.70;99.90;;;;;;5030777;28;20304;-91
2022/03/23 07:58:58;;;;;;;7.73;5.13;;;9.90;99.90;;;;;;5033692;28;21029;-90
2022/03/23 08:01:23;;;;;;;3.83;3.63;;;10.10;99.90;;;;;;5021097;28;20230;-89
2022/03/23 08:03:49;;;;;;;2.23;2.07;;;10.40;99.90;;;;;;5025347;28;20478;-91
2022/03/23 08:06:14;;;;;;;1.30;1.20;;;10.50;99.90;;;;;;5027607;28;20187;-93
2022/03/23 08:08:40;;;;;;;2.80;1.63;;;10.70;99.90;;;;;;5007563;28;20223;-93
2022/03/23 08:11:05;;;;;;;2.27;1.40;;;10.80;99.90;;;;;;5007352;28;20704;-93
2022/03/23 08:13:31;;;;;;;7.43;2.17;;;10.90;99.90;;;;;;5009596;28;20246;-92
2022/03/23 08:15:57;;;;;;;3.10;1.80;;;11.10;99.90;;;;;;5036605;28;20254;-92
2022/03/23 08:18:23;;;;;;;5.07;4.47;;;11.20;99.90;;;;;;5022205;28;20187;-90
2022/03/23 08:20:49;;;;;;;7.30;3.40;;;11.40;99.90;;;;;;5035201;28;20568;-90
2022/03/23 08:23:15;;;;;;;4.53;4.13;;;11.30;97.40;;;;;;5032485;28;20176;-94
2022/03/23 08:25:42;;;;;;;3.43;1.30;;;11.50;97.70;;;;;;5033113;28;20984;-91
2022/03/23 08:28:12;;;;;;;2.23;2.03;;;11.70;98.60;;;;;;5034633;28;20414;-91
2022/03/23 08:30:38;;;;;;;3.00;2.83;;;11.80;98.30;;;;;;5034541;28;20489;-90
2022/03/23 08:33:05;;;;;;;2.47;2.30;;;11.90;97.10;;;;;;5032789;28;20462;-89
2022/03/23 08:35:31;;;;;;;2.63;1.67;;;12.10;97.20;;;;;;5034116;28;20503;-91
2022/03/23 08:37:57;;;;;;;1.50;1.40;;;12.10;96.30;;;;;;5034263;28;20492;-91
2022/03/23 08:40:23;;;;;;;3.10;2.93;;;12.20;97.40;;;;;;5034356;28;20530;-90
2022/03/23 08:42:49;;;;;;;9.33;2.90;;;12.50;97.50;;;;;;5034166;28;20502;-91
2022/03/23 08:45:16;;;;;;;3.97;2.30;;;12.50;96.70;;;;;;5023420;28;20235;-89
2022/03/23 08:47:42;;;;;;;6.20;4.60;;;12.70;96.40;;;;;;5016776;28;20200;-92
2022/03/23 08:50:10;;;;;;;3.90;2.60;;;12.80;96.30;;;;;;5022709;28;20486;-93
2022/03/23 08:52:38;;;;;;;5.77;1.70;;;13.00;97.00;;;;;;5033652;28;20442;-91
2022/03/23 08:55:06;;;;;;;0.47;0.47;;;13.10;95.70;;;;;;5024341;28;20443;-93
2022/03/23 08:57:32;;;;;;;1.90;1.80;;;13.10;95.60;;;;;;5015201;28;21010;-93
2022/03/23 08:59:58;;;;;;;2.03;1.80;;;13.40;95.10;;;;;;5036035;28;20422;-96
2022/03/23 09:02:23;;;;;;;2.90;2.70;;;13.30;94.30;;;;;;5039292;28;20441;-94
2022/03/23 09:04:50;;;;;;;3.67;2.90;;;13.80;94.00;;;;;;5030990;28;20194;-95
2022/03/23 09:07:27;;;;;;;2.47;2.27;;;13.60;91.60;;;;;;5039741;28;20179;-95
2022/03/23 09:09:53;;;;;;;2.10;1.90;;;14.00;93.60;;;;;;5023385;28;20478;-95
2022/03/23 09:12:18;;;;;;;4.20;2.53;;;14.10;94.30;;;;;;5009256;28;20466;-94
2022/03/23 09:14:44;;;;;;;2.43;2.07;;;14.30;92.50;;;;;;5034133;28;20643;-94
2022/03/23 09:17:09;;;;;;;2.57;2.37;;;14.50;91.80;;;;;;5034338;28;20190;-93
2022/03/23 09:19:35;;;;;;;2.70;2.50;;;14.70;90.90;;;;;;5033921;28;20200;-95
2022/03/23 09:22:00;;;;;;;3.03;1.90;;;15.00;91.50;;;;;;5010857;28;20653;-91
2022/03/23 09:24:27;;;;;;;1.10;0.70;;;15.20;88.80;;;;;;5031148;28;20195;-94
2022/03/23 09:26:54;;;;;;;2.60;2.30;;;15.10;90.50;;;;;;5015443;28;20568;-93
2022/03/23 09:29:20;;;;;;;2.20;2.00;;;15.10;85.00;;;;;;5010446;28;20540;-92
2022/03/23 09:31:46;;;;;;;6.47;3.43;;;15.00;88.50;;;;;;5027894;28;21027;-93
2022/03/23 09:34:11;;;;;;;2.43;2.23;;;15.20;88.20;;;;;;5030873;28;20542;-94
2022/03/23 09:39:21;;;;;;;3.33;2.20;;;15.70;88.90;;;;;;5026208;28;20679;-89
2022/03/23 09:41:47;;;;;;;3.53;1.37;;;15.90;84.90;;;;;;5033743;28;20973;-86
2022/03/23 09:44:13;;;;;;;2.50;1.93;;;16.20;84.10;;;;;;5028047;28;20248;-92
2022/03/23 09:46:38;;;;;;;4.03;3.73;;;16.40;84.50;;;;;;5029131;28;20462;-90
2022/03/23 09:49:06;;;;;;;2.00;1.80;;;16.30;83.40;;;;;;5010705;28;20779;-90
2022/03/23 09:51:34;;;;;;;3.93;1.60;;;16.40;81.10;;;;;;5010330;28;20202;-91
2022/03/23 09:54:01;;;;;;;2.50;2.30;;;16.80;79.50;;;;;;5027798;28;20443;-91
2022/03/23 09:56:27;;;;;;;4.43;3.40;;;16.50;76.10;;;;;;5016512;28;20612;-90
2022/03/23 09:58:53;;;;;;;2.00;1.90;;;17.10;79.40;;;;;;5021390;28;20457;-90
2022/03/23 10:01:34;;;;;;;3.20;2.57;;;17.00;75.80;;;;;;5028665;28;20671;-90
2022/03/23 10:04:18;;;;;;;1.47;1.03;;;17.40;82.60;;;;;;5026883;28;20187;-91
2022/03/23 10:07:21;;;;;;;2.60;2.40;;;17.60;76.00;;;;;;5028638;28;20463;-90
2022/03/23 10:10:08;;;;;;;6.60;3.40;;;17.50;77.20;;;;;;5007173;28;20855;-91
2022/03/23 10:13:11;;;;;;;5.20;1.43;;;17.90;72.30;;;;;;5026030;28;20959;-91
2022/03/23 10:16:14;;;;;;;3.73;2.00;;;17.90;76.50;;;;;;5021128;28;20462;-92
2022/03/23 10:18:52;;;;;;;2.10;1.90;;;18.00;74.10;;;;;;5013805;28;20493;-96
2022/03/23 10:21:20;;;;;;;5.63;5.10;;;18.50;70.60;;;;;;5026180;28;20442;-96
2022/03/23 10:23:58;;;;;;;4.27;4.00;;;18.70;77.70;;;;;;5012632;28;20446;-96
2022/03/23 10:26:23;;;;;;;8.37;4.03;;;18.80;71.10;;;;;;5028934;28;20544;-92
2022/03/23 10:28:49;;;;;;;2.23;2.03;;;19.10;74.10;;;;;;5026587;28;20542;-92
2022/03/23 10:31:16;;;;;;;3.33;3.03;;;19.30;67.50;;;;;;5011000;28;20219;-92
2022/03/23 10:33:42;;;;;;;2.90;2.47;;;19.50;67.30;;;;;;5027112;28;20183;-93
2022/03/23 10:36:08;;;;;;;1.20;1.07;;;19.40;61.60;;;;;;5000181;28;20478;-93
2022/03/23 10:38:39;;;;;;;4.20;2.93;;;19.50;64.80;;;;;;5023973;28;20450;-94
2022/03/23 10:41:11;;;;;;;3.37;3.07;;;18.80;60.30;;;;;;5026716;28;20269;-91
2022/03/23 10:43:39;;;;;;;1.30;1.20;;;18.80;62.30;;;;;;5007356;28;20549;-93
2022/03/23 10:46:09;;;;;;;1.60;1.50;;;19.00;59.80;;;;;;5023119;28;20469;-92
2022/03/23 10:48:35;;;;;;;2.03;1.93;;;18.60;58.70;;;;;;5024346;28;20442;-92
2022/03/23 10:51:01;;;;;;;2.57;2.37;;;19.10;59.80;;;;;;5027960;28;20486;-93
2022/03/23 10:53:37;;;;;;;0.10;0.10;;;19.40;60.70;;;;;;5031448;28;20500;-93
2022/03/23 10:56:04;;;;;;;2.53;2.30;;;19.20;58.80;;;;;;5028863;28;20282;-93
2022/03/23 10:58:30;;;;;;;3.10;2.20;;;19.30;59.80;;;;;;5029736;28;20442;-93
2022/03/23 11:01:05;;;;;;;30.47;27.90;;;19.40;60.10;;;;;;5026862;28;20485;-94
2022/03/23 11:03:48;;;;;;;4.87;2.47;;;20.10;60.00;;;;;;5025476;28;20445;-93
2022/03/23 11:06:16;;;;;;;4.30;2.67;;;20.20;59.70;;;;;;5030637;28;20442;-92
2022/03/23 11:08:43;;;;;;;4.43;2.23;;;20.20;62.60;;;;;;5034757;28;20449;-94
2022/03/23 11:16:46;;;;;;;9.10;8.70;;;20.10;65.40;;;;;;5031287;28;20464;-92
2022/03/23 11:19:11;;;;;;;3.07;2.87;;;20.70;60.90;;;;;;5030287;28;20433;-93
2022/03/23 11:22:04;;;;;;;2.80;1.77;;;21.20;61.10;;;;;;5029042;28;20511;-94
2022/03/23 11:24:38;;;;;;;4.37;2.27;;;20.80;60.20;;;;;;5049156;28;20520;-95
2022/03/23 11:27:06;;;;;;;1.73;1.33;;;21.50;65.50;;;;;;5040234;28;20426;-94
2022/03/23 11:29:33;;;;;;;2.57;2.37;;;21.40;62.60;;;;;;5031370;28;20473;-94
2022/03/23 11:32:03;;;;;;;2.77;2.00;;;21.50;62.80;;;;;;5038736;28;20437;-93
2022/03/23 11:34:32;;;;;;;4.47;3.00;;;21.60;59.10;;;;;;5033352;28;20945;-91
2022/03/23 11:36:58;;;;;;;10.90;9.93;;;21.80;58.90;;;;;;5032296;28;20445;-93
2022/03/23 11:39:23;;;;;;;1.73;1.63;;;22.10;60.70;;;;;;5028570;28;20450;-94
2022/03/23 11:41:51;;;;;;;3.83;3.63;;;21.70;61.70;;;;;;5022858;28;20203;-92
2022/03/23 11:44:22;;;;;;;4.10;2.53;;;21.40;59.90;;;;;;5028065;28;20188;-91
2022/03/23 11:46:49;;;;;;;2.13;1.53;;;22.30;62.50;;;;;;5030166;28;21132;-91
2022/03/23 11:49:37;;;;;;;2.30;2.10;;;22.30;60.00;;;;;;5022175;28;20934;-90
2022/03/23 11:52:21;;;;;;;4.70;2.40;;;21.80;58.50;;;;;;5033735;28;20453;-91
2022/03/23 11:58:30;;;;;;;4.40;2.70;;;22.10;61.70;;;;;;5022499;28;20438;-91
2022/03/23 12:01:10;;;;;;;4.87;2.27;;;22.10;60.40;;;;;;5029844;28;20444;-92
2022/03/23 12:03:49;;;;;;;1.87;1.33;;;22.10;64.90;;;;;;5036933;28;20448;-92
2022/03/23 12:06:36;;;;;;;3.00;2.70;;;22.20;60.40;;;;;;5044009;28;20529;-93
2022/03/23 12:09:02;;;;;;;2.07;1.40;;;21.70;60.40;;;;;;5032904;28;20456;-89
2022/03/23 12:11:43;;;;;;;2.87;2.57;;;21.00;61.70;;;;;;5035967;28;20458;-91
2022/03/23 12:14:29;;;;;;;3.33;1.30;;;21.50;61.70;;;;;;5031560;28;20457;-91
2022/03/23 12:16:57;;;;;;;3.23;2.70;;;22.30;59.60;;;;;;5008625;28;20793;-93
2022/03/23 12:19:24;;;;;;;5.97;2.33;;;22.10;60.50;;;;;;5014607;28;20596;-92
2022/03/23 12:22:07;;;;;;;1.00;0.87;;;22.50;62.30;;;;;;5032761;28;20529;-90
2022/03/23 12:24:53;;;;;;;2.90;1.87;;;22.60;62.30;;;;;;5015758;28;20430;-93
2022/03/23 12:27:51;;;;;;;4.30;2.87;;;22.70;64.40;;;;;;5033066;28;20448;-92
2022/03/23 12:30:26;;;;;;;2.87;1.70;;;23.00;64.20;;;;;;5030704;28;20485;-90
2022/03/23 12:32:54;;;;;;;4.47;3.73;;;23.60;59.60;;;;;;5027829;28;20438;-93
2022/03/23 12:35:30;;;;;;;2.00;1.60;;;23.70;59.30;;;;;;5032868;28;20508;-91
2022/03/23 12:37:59;;;;;;;2.27;2.03;;;22.90;59.00;;;;;;5007401;28;20553;-91
2022/03/23 12:40:39;;;;;;;5.03;2.50;;;22.30;59.80;;;;;;5030439;28;20457;-91
2022/03/23 12:43:04;;;;;;;8.20;2.73;;;22.90;62.20;;;;;;5022232;28;20926;-92
2022/03/23 12:45:39;;;;;;;2.80;2.60;;;23.40;60.00;;;;;;5020056;28;20505;-91
2022/03/23 12:59:19;;;;;;;4.70;2.80;;;23.90;63.50;;;;;;5026395;28;20433;-93
2022/03/23 13:01:45;;;;;;;3.50;2.53;;;24.20;62.30;;;;;;5030417;28;20456;-93
2022/03/23 13:04:40;;;;;;;3.00;2.70;;;24.10;62.00;;;;;;5025296;28;20441;-92
2022/03/23 13:07:27;;;;;;;5.80;4.50;;;23.90;62.30;;;;;;5031429;28;20442;-93
2022/03/23 13:10:13;;;;;;;3.00;2.23;;;24.10;63.90;;;;;;5021967;28;20462;-92
2022/03/23 13:12:39;;;;;;;4.50;3.77;;;24.20;61.40;;;;;;5028510;28;20937;-93
2022/03/23 13:15:17;;;;;;;2.33;2.03;;;24.00;62.40;;;;;;5029375;28;20528;-94
2022/03/23 13:17:44;;;;;;;4.83;2.37;;;24.20;63.20;;;;;;5031400;28;20994;-94
2022/03/23 13:20:13;;;;;;;2.87;1.97;;;24.10;62.80;;;;;;5028112;28;20446;-94
2022/03/23 13:22:40;;;;;;;3.60;2.10;;;24.20;63.00;;;;;;5026082;28;20431;-93
2022/03/23 13:25:13;;;;;;;2.80;2.30;;;23.80;61.90;;;;;;5027812;28;20446;-91
2022/03/23 13:27:39;;;;;;;5.30;3.23;;;23.90;61.80;;;;;;5027965;28;20540;-91
2022/03/23 13:30:11;;;;;;;3.80;2.40;;;23.80;61.10;;;;;;5030157;28;20478;-93